sensor_id;sensor_type;location;lat;lon;timestamp;P1;durP1;ratioP1;P2;durP2;ratioP2
58731;SDS011;44508;44.626;21.182;2022-12-07T00:00:32;13.88;;;7.65;;
58731;SDS011;44508;44.626;21.182;2022-12-07T00:02:58;14.65;;;8.02;;
58731;SDS011;44508;44.626;21.182;2022-12-07T00:05:24;13.65;;;7.63;;
58731;SDS011;44508;44.626;21.182;2022-12-07T00:07:50;16.25;;;7.80;;
58731;SDS011;44508;44.626;21.182;2022-12-07T00:10:16;14.80;;;8.25;;
58731;SDS011;44508;44.626;21.182;2022-12-07T00:12:42;18.63;;;8.80;;
58731;SDS011;44508;44.626;21.182;2022-12-07T00:15:08;17.70;;;10.00;;
58731;SDS011;44508;44.626;21.182;2022-12-07T00:17:34;17.52;;;9.45;;
58731;SDS011;44508;44.626;21.182;2022-12-07T00:20:00;22.77;;;10.00;;
58731;SDS011;44508;44.626;21.182;2022-12-07T00:22:26;16.48;;;8.20;;
58731;SDS011;44508;44.626;21.182;2022-12-07T00:24:52;14.10;;;8.13;;
58731;SDS011;44508;44.626;21.182;2022-12-07T00:27:18;16.20;;;8.68;;
58731;SDS011;44508;44.626;21.182;2022-12-07T00:29:44;11.95;;;6.85;;
58731;SDS011;44508;44.626;21.182;2022-12-07T00:32:10;13.45;;;7.72;;
58731;SDS011;44508;44.626;21.182;2022-12-07T00:34:36;17.10;;;7.43;;
58731;SDS011;44508;44.626;21.182;2022-12-07T00:37:03;17.90;;;10.18;;
58731;SDS011;44508;44.626;21.182;2022-12-07T00:39:29;21.15;;;11.48;;
58731;SDS011;44508;44.626;21.182;2022-12-07T00:41:55;24.27;;;13.88;;
58731;SDS011;44508;44.626;21.182;2022-12-07T00:44:21;19.85;;;12.45;;
58731;SDS011;44508;44.626;21.182;2022-12-07T00:46:47;24.42;;;13.77;;
58731;SDS011;44508;44.626;21.182;2022-12-07T00:49:13;19.73;;;10.90;;
58731;SDS011;44508;44.626;21.182;2022-12-07T00:51:39;18.17;;;10.15;;
58731;SDS011;44508;44.626;21.182;2022-12-07T00:54:05;21.58;;;12.00;;
58731;SDS011;44508;44.626;21.182;2022-12-07T00:56:31;16.85;;;9.77;;
58731;SDS011;44508;44.626;21.182;2022-12-07T00:58:58;12.10;;;7.30;;
58731;SDS011;44508;44.626;21.182;2022-12-07T01:01:26;10.55;;;7.18;;
58731;SDS011;44508;44.626;21.182;2022-12-07T01:03:52;9.25;;;6.95;;
58731;SDS011;44508;44.626;21.182;2022-12-07T01:06:19;9.52;;;6.63;;
58731;SDS011;44508;44.626;21.182;2022-12-07T01:08:45;12.73;;;8.45;;
58731;SDS011;44508;44.626;21.182;2022-12-07T01:11:13;12.00;;;7.60;;
58731;SDS011;44508;44.626;21.182;2022-12-07T01:13:39;19.00;;;11.50;;
58731;SDS011;44508;44.626;21.182;2022-12-07T01:16:06;15.90;;;9.30;;
58731;SDS011;44508;44.626;21.182;2022-12-07T01:18:33;17.17;;;10.07;;
58731;SDS011;44508;44.626;21.182;2022-12-07T01:21:03;18.33;;;10.68;;
58731;SDS011;44508;44.626;21.182;2022-12-07T01:23:30;17.67;;;9.95;;
58731;SDS011;44508;44.626;21.182;2022-12-07T01:25:57;10.05;;;7.15;;
58731;SDS011;44508;44.626;21.182;2022-12-07T01:28:23;15.10;;;10.05;;
58731;SDS011;44508;44.626;21.182;2022-12-07T01:31:00;22.05;;;13.75;;
58731;SDS011;44508;44.626;21.182;2022-12-07T01:33:27;33.38;;;19.63;;
58731;SDS011;44508;44.626;21.182;2022-12-07T01:35:53;36.65;;;20.08;;
58731;SDS011;44508;44.626;21.182;2022-12-07T01:38:19;26.75;;;15.52;;
58731;SDS011;44508;44.626;21.182;2022-12-07T01:40:52;18.58;;;11.25;;
58731;SDS011;44508;44.626;21.182;2022-12-07T01:43:19;12.07;;;8.18;;
58731;SDS011;44508;44.626;21.182;2022-12-07T01:45:46;15.27;;;7.20;;
58731;SDS011;44508;44.626;21.182;2022-12-07T01:48:13;13.45;;;8.05;;
58731;SDS011;44508;44.626;21.182;2022-12-07T01:50:41;11.20;;;6.88;;
58731;SDS011;44508;44.626;21.182;2022-12-07T01:53:08;13.88;;;8.82;;
58731;SDS011;44508;44.626;21.182;2022-12-07T01:55:35;13.48;;;9.40;;
58731;SDS011;44508;44.626;21.182;2022-12-07T01:58:03;14.85;;;8.57;;
58731;SDS011;44508;44.626;21.182;2022-12-07T02:00:29;15.63;;;8.93;;
58731;SDS011;44508;44.626;21.182;2022-12-07T02:02:57;14.30;;;8.65;;
58731;SDS011;44508;44.626;21.182;2022-12-07T02:05:25;9.10;;;5.63;;
58731;SDS011;44508;44.626;21.182;2022-12-07T02:07:53;10.00;;;5.97;;
58731;SDS011;44508;44.626;21.182;2022-12-07T02:12:47;11.63;;;7.10;;
58731;SDS011;44508;44.626;21.182;2022-12-07T02:15:14;9.30;;;6.47;;
58731;SDS011;44508;44.626;21.182;2022-12-07T02:17:51;9.00;;;5.90;;
58731;SDS011;44508;44.626;21.182;2022-12-07T02:20:29;12.38;;;7.38;;
58731;SDS011;44508;44.626;21.182;2022-12-07T02:28:07;9.65;;;6.07;;
58731;SDS011;44508;44.626;21.182;2022-12-07T02:30:40;12.40;;;6.57;;
58731;SDS011;44508;44.626;21.182;2022-12-07T02:33:16;9.82;;;6.10;;
58731;SDS011;44508;44.626;21.182;2022-12-07T02:35:44;10.93;;;6.20;;
58731;SDS011;44508;44.626;21.182;2022-12-07T02:43:18;19.92;;;11.13;;
58731;SDS011;44508;44.626;21.182;2022-12-07T02:45:45;25.02;;;12.23;;
58731;SDS011;44508;44.626;21.182;2022-12-07T02:48:13;25.38;;;14.10;;
58731;SDS011;44508;44.626;21.182;2022-12-07T02:50:44;20.55;;;12.05;;
58731;SDS011;44508;44.626;21.182;2022-12-07T02:55:55;24.65;;;12.27;;
58731;SDS011;44508;44.626;21.182;2022-12-07T03:01:15;17.35;;;10.13;;
58731;SDS011;44508;44.626;21.182;2022-12-07T03:03:37;18.02;;;8.80;;
58731;SDS011;44508;44.626;21.182;2022-12-07T03:06:20;16.58;;;10.27;;
58731;SDS011;44508;44.626;21.182;2022-12-07T03:08:52;24.38;;;13.93;;
58731;SDS011;44508;44.626;21.182;2022-12-07T03:12:09;25.83;;;14.88;;
58731;SDS011;44508;44.626;21.182;2022-12-07T03:16:53;15.63;;;8.98;;
58731;SDS011;44508;44.626;21.182;2022-12-07T03:19:22;14.38;;;8.40;;
58731;SDS011;44508;44.626;21.182;2022-12-07T03:22:12;12.38;;;7.85;;
58731;SDS011;44508;44.626;21.182;2022-12-07T03:24:47;13.68;;;7.32;;
58731;SDS011;44508;44.626;21.182;2022-12-07T03:27:21;10.45;;;6.90;;
58731;SDS011;44508;44.626;21.182;2022-12-07T03:29:54;11.10;;;7.38;;
58731;SDS011;44508;44.626;21.182;2022-12-07T03:32:38;10.02;;;6.82;;
58731;SDS011;44508;44.626;21.182;2022-12-07T03:35:12;12.10;;;7.13;;
58731;SDS011;44508;44.626;21.182;2022-12-07T03:40:37;8.00;;;5.20;;
58731;SDS011;44508;44.626;21.182;2022-12-07T03:43:05;15.88;;;9.45;;
58731;SDS011;44508;44.626;21.182;2022-12-07T03:45:41;15.88;;;9.45;;
58731;SDS011;44508;44.626;21.182;2022-12-07T03:48:10;20.55;;;11.65;;
58731;SDS011;44508;44.626;21.182;2022-12-07T03:50:53;10.13;;;6.20;;
58731;SDS011;44508;44.626;21.182;2022-12-07T03:53:29;11.95;;;8.02;;
58731;SDS011;44508;44.626;21.182;2022-12-07T03:55:58;10.93;;;7.50;;
58731;SDS011;44508;44.626;21.182;2022-12-07T03:58:25;12.38;;;8.70;;
58731;SDS011;44508;44.626;21.182;2022-12-07T04:00:52;12.52;;;8.60;;
58731;SDS011;44508;44.626;21.182;2022-12-07T04:03:18;10.60;;;8.30;;
58731;SDS011;44508;44.626;21.182;2022-12-07T04:05:44;13.10;;;7.80;;
58731;SDS011;44508;44.626;21.182;2022-12-07T04:08:10;11.07;;;6.25;;
58731;SDS011;44508;44.626;21.182;2022-12-07T04:10:36;9.10;;;5.10;;
58731;SDS011;44508;44.626;21.182;2022-12-07T04:13:02;9.10;;;5.80;;
58731;SDS011;44508;44.626;21.182;2022-12-07T04:15:28;11.95;;;7.32;;
58731;SDS011;44508;44.626;21.182;2022-12-07T04:17:55;16.73;;;9.07;;
58731;SDS011;44508;44.626;21.182;2022-12-07T04:20:21;21.15;;;10.93;;
58731;SDS011;44508;44.626;21.182;2022-12-07T04:22:47;17.55;;;10.70;;
58731;SDS011;44508;44.626;21.182;2022-12-07T04:25:13;36.28;;;14.32;;
58731;SDS011;44508;44.626;21.182;2022-12-07T04:27:39;34.45;;;16.65;;
58731;SDS011;44508;44.626;21.182;2022-12-07T04:30:05;27.70;;;14.18;;
58731;SDS011;44508;44.626;21.182;2022-12-07T04:32:31;22.08;;;13.43;;
58731;SDS011;44508;44.626;21.182;2022-12-07T04:34:57;25.42;;;15.55;;
58731;SDS011;44508;44.626;21.182;2022-12-07T04:37:23;33.30;;;17.73;;
58731;SDS011;44508;44.626;21.182;2022-12-07T04:39:49;27.55;;;15.48;;
58731;SDS011;44508;44.626;21.182;2022-12-07T04:42:16;44.28;;;22.95;;
58731;SDS011;44508;44.626;21.182;2022-12-07T04:44:42;34.50;;;17.85;;
58731;SDS011;44508;44.626;21.182;2022-12-07T04:47:08;39.20;;;20.88;;
58731;SDS011;44508;44.626;21.182;2022-12-07T04:49:34;32.22;;;18.85;;
58731;SDS011;44508;44.626;21.182;2022-12-07T04:52:00;29.27;;;17.02;;
58731;SDS011;44508;44.626;21.182;2022-12-07T04:54:26;15.63;;;10.32;;
58731;SDS011;44508;44.626;21.182;2022-12-07T04:56:52;12.30;;;7.78;;
58731;SDS011;44508;44.626;21.182;2022-12-07T04:59:18;15.18;;;9.93;;
58731;SDS011;44508;44.626;21.182;2022-12-07T05:01:44;24.33;;;15.45;;
58731;SDS011;44508;44.626;21.182;2022-12-07T05:04:10;20.05;;;12.93;;
58731;SDS011;44508;44.626;21.182;2022-12-07T05:06:36;43.45;;;25.38;;
58731;SDS011;44508;44.626;21.182;2022-12-07T05:09:03;51.05;;;30.80;;
58731;SDS011;44508;44.626;21.182;2022-12-07T05:11:29;22.27;;;14.15;;
58731;SDS011;44508;44.626;21.182;2022-12-07T05:14:10;23.02;;;15.23;;
58731;SDS011;44508;44.626;21.182;2022-12-07T05:16:36;21.58;;;14.40;;
58731;SDS011;44508;44.626;21.182;2022-12-07T05:19:03;30.00;;;17.55;;
58731;SDS011;44508;44.626;21.182;2022-12-07T05:21:29;26.10;;;17.10;;
58731;SDS011;44508;44.626;21.182;2022-12-07T05:23:55;29.90;;;17.77;;
58731;SDS011;44508;44.626;21.182;2022-12-07T05:26:22;40.65;;;21.00;;
58731;SDS011;44508;44.626;21.182;2022-12-07T05:28:51;36.22;;;20.10;;
58731;SDS011;44508;44.626;21.182;2022-12-07T05:31:17;35.55;;;21.30;;
58731;SDS011;44508;44.626;21.182;2022-12-07T05:33:44;42.33;;;23.33;;
58731;SDS011;44508;44.626;21.182;2022-12-07T05:36:10;41.60;;;23.73;;
58731;SDS011;44508;44.626;21.182;2022-12-07T05:38:36;46.17;;;24.05;;
58731;SDS011;44508;44.626;21.182;2022-12-07T05:41:02;41.97;;;23.55;;
58731;SDS011;44508;44.626;21.182;2022-12-07T05:43:29;40.70;;;22.02;;
58731;SDS011;44508;44.626;21.182;2022-12-07T05:45:55;38.67;;;22.42;;
58731;SDS011;44508;44.626;21.182;2022-12-07T05:48:21;35.45;;;21.23;;
58731;SDS011;44508;44.626;21.182;2022-12-07T05:50:48;32.88;;;19.40;;
58731;SDS011;44508;44.626;21.182;2022-12-07T05:53:14;36.20;;;22.25;;
58731;SDS011;44508;44.626;21.182;2022-12-07T05:55:40;41.05;;;24.17;;
58731;SDS011;44508;44.626;21.182;2022-12-07T05:58:06;37.08;;;22.83;;
58731;SDS011;44508;44.626;21.182;2022-12-07T06:01:04;37.90;;;21.70;;
58731;SDS011;44508;44.626;21.182;2022-12-07T06:03:30;41.13;;;23.52;;
58731;SDS011;44508;44.626;21.182;2022-12-07T06:05:56;18.52;;;11.57;;
58731;SDS011;44508;44.626;21.182;2022-12-07T06:08:22;18.10;;;10.30;;
58731;SDS011;44508;44.626;21.182;2022-12-07T06:10:49;22.20;;;12.75;;
58731;SDS011;44508;44.626;21.182;2022-12-07T06:13:35;11.15;;;8.32;;
58731;SDS011;44508;44.626;21.182;2022-12-07T06:16:01;13.02;;;8.55;;
58731;SDS011;44508;44.626;21.182;2022-12-07T06:18:27;12.40;;;8.57;;
58731;SDS011;44508;44.626;21.182;2022-12-07T06:20:53;15.68;;;11.30;;
58731;SDS011;44508;44.626;21.182;2022-12-07T06:23:19;21.58;;;12.98;;
58731;SDS011;44508;44.626;21.182;2022-12-07T06:25:45;26.60;;;15.60;;
58731;SDS011;44508;44.626;21.182;2022-12-07T06:28:11;23.02;;;13.23;;
58731;SDS011;44508;44.626;21.182;2022-12-07T06:30:37;18.65;;;11.32;;
58731;SDS011;44508;44.626;21.182;2022-12-07T06:33:03;17.02;;;10.35;;
58731;SDS011;44508;44.626;21.182;2022-12-07T06:35:29;18.80;;;10.93;;
58731;SDS011;44508;44.626;21.182;2022-12-07T06:37:57;16.23;;;10.40;;
58731;SDS011;44508;44.626;21.182;2022-12-07T06:40:24;17.83;;;10.57;;
58731;SDS011;44508;44.626;21.182;2022-12-07T06:42:50;14.93;;;8.38;;
58731;SDS011;44508;44.626;21.182;2022-12-07T06:45:16;16.52;;;9.45;;
58731;SDS011;44508;44.626;21.182;2022-12-07T06:47:42;18.10;;;10.02;;
58731;SDS011;44508;44.626;21.182;2022-12-07T06:50:08;19.60;;;11.30;;
58731;SDS011;44508;44.626;21.182;2022-12-07T06:52:34;22.98;;;13.75;;
58731;SDS011;44508;44.626;21.182;2022-12-07T06:55:00;19.20;;;12.88;;
58731;SDS011;44508;44.626;21.182;2022-12-07T06:57:26;33.28;;;19.02;;
58731;SDS011;44508;44.626;21.182;2022-12-07T06:59:52;33.10;;;18.63;;
58731;SDS011;44508;44.626;21.182;2022-12-07T07:02:18;32.85;;;19.77;;
58731;SDS011;44508;44.626;21.182;2022-12-07T07:04:44;45.47;;;24.88;;
58731;SDS011;44508;44.626;21.182;2022-12-07T07:07:10;42.55;;;26.05;;
58731;SDS011;44508;44.626;21.182;2022-12-07T07:09:36;69.97;;;42.17;;
58731;SDS011;44508;44.626;21.182;2022-12-07T07:12:03;56.97;;;32.38;;
58731;SDS011;44508;44.626;21.182;2022-12-07T07:14:29;46.70;;;25.67;;
58731;SDS011;44508;44.626;21.182;2022-12-07T07:16:55;36.00;;;22.77;;
58731;SDS011;44508;44.626;21.182;2022-12-07T07:19:21;41.20;;;25.02;;
58731;SDS011;44508;44.626;21.182;2022-12-07T07:21:47;43.35;;;24.02;;
58731;SDS011;44508;44.626;21.182;2022-12-07T07:24:13;46.42;;;23.67;;
58731;SDS011;44508;44.626;21.182;2022-12-07T07:26:39;46.58;;;26.50;;
58731;SDS011;44508;44.626;21.182;2022-12-07T07:29:05;37.63;;;22.73;;
58731;SDS011;44508;44.626;21.182;2022-12-07T07:31:31;63.13;;;36.25;;
58731;SDS011;44508;44.626;21.182;2022-12-07T07:34:00;91.38;;;50.92;;
58731;SDS011;44508;44.626;21.182;2022-12-07T07:36:26;106.05;;;61.90;;
58731;SDS011;44508;44.626;21.182;2022-12-07T07:38:52;93.35;;;55.08;;
58731;SDS011;44508;44.626;21.182;2022-12-07T07:41:18;63.78;;;37.45;;
58731;SDS011;44508;44.626;21.182;2022-12-07T07:43:44;46.80;;;27.33;;
58731;SDS011;44508;44.626;21.182;2022-12-07T07:46:10;39.08;;;25.08;;
58731;SDS011;44508;44.626;21.182;2022-12-07T07:48:36;48.78;;;30.23;;
58731;SDS011;44508;44.626;21.182;2022-12-07T07:51:08;56.38;;;34.42;;
58731;SDS011;44508;44.626;21.182;2022-12-07T07:53:34;54.70;;;36.22;;
58731;SDS011;44508;44.626;21.182;2022-12-07T07:56:00;55.50;;;34.85;;
58731;SDS011;44508;44.626;21.182;2022-12-07T07:58:26;84.07;;;48.13;;
58731;SDS011;44508;44.626;21.182;2022-12-07T08:00:52;130.38;;;74.50;;
58731;SDS011;44508;44.626;21.182;2022-12-07T08:03:19;88.03;;;53.70;;
58731;SDS011;44508;44.626;21.182;2022-12-07T08:05:45;139.00;;;78.32;;
58731;SDS011;44508;44.626;21.182;2022-12-07T08:08:11;73.55;;;43.35;;
58731;SDS011;44508;44.626;21.182;2022-12-07T08:10:37;61.38;;;38.80;;
58731;SDS011;44508;44.626;21.182;2022-12-07T08:13:03;67.22;;;40.88;;
58731;SDS011;44508;44.626;21.182;2022-12-07T08:15:36;67.53;;;44.17;;
58731;SDS011;44508;44.626;21.182;2022-12-07T08:18:03;72.25;;;43.58;;
58731;SDS011;44508;44.626;21.182;2022-12-07T08:20:32;85.30;;;51.88;;
58731;SDS011;44508;44.626;21.182;2022-12-07T08:22:58;108.35;;;61.72;;
58731;SDS011;44508;44.626;21.182;2022-12-07T08:25:24;90.43;;;52.67;;
58731;SDS011;44508;44.626;21.182;2022-12-07T08:27:51;101.88;;;58.80;;
58731;SDS011;44508;44.626;21.182;2022-12-07T08:30:17;111.13;;;60.22;;
58731;SDS011;44508;44.626;21.182;2022-12-07T08:32:46;77.13;;;45.20;;
58731;SDS011;44508;44.626;21.182;2022-12-07T08:35:12;56.97;;;34.97;;
58731;SDS011;44508;44.626;21.182;2022-12-07T08:37:39;99.07;;;57.15;;
58731;SDS011;44508;44.626;21.182;2022-12-07T08:40:06;152.55;;;87.53;;
58731;SDS011;44508;44.626;21.182;2022-12-07T08:42:32;118.85;;;70.63;;
58731;SDS011;44508;44.626;21.182;2022-12-07T08:45:09;60.85;;;35.25;;
58731;SDS011;44508;44.626;21.182;2022-12-07T08:47:36;57.90;;;37.20;;
58731;SDS011;44508;44.626;21.182;2022-12-07T08:50:03;60.65;;;37.20;;
58731;SDS011;44508;44.626;21.182;2022-12-07T08:52:30;67.78;;;37.88;;
58731;SDS011;44508;44.626;21.182;2022-12-07T08:54:58;61.20;;;36.50;;
58731;SDS011;44508;44.626;21.182;2022-12-07T08:57:25;63.95;;;39.60;;
58731;SDS011;44508;44.626;21.182;2022-12-07T08:59:51;109.28;;;61.90;;
58731;SDS011;44508;44.626;21.182;2022-12-07T09:02:17;93.75;;;59.38;;
58731;SDS011;44508;44.626;21.182;2022-12-07T09:04:43;85.93;;;52.03;;
58731;SDS011;44508;44.626;21.182;2022-12-07T09:07:09;91.68;;;56.15;;
58731;SDS011;44508;44.626;21.182;2022-12-07T09:09:35;96.10;;;55.35;;
58731;SDS011;44508;44.626;21.182;2022-12-07T09:12:01;83.60;;;50.80;;
58731;SDS011;44508;44.626;21.182;2022-12-07T09:14:27;82.43;;;50.25;;
58731;SDS011;44508;44.626;21.182;2022-12-07T09:16:54;98.03;;;62.00;;
58731;SDS011;44508;44.626;21.182;2022-12-07T09:19:20;104.50;;;64.72;;
58731;SDS011;44508;44.626;21.182;2022-12-07T09:21:46;96.07;;;59.42;;
58731;SDS011;44508;44.626;21.182;2022-12-07T09:24:12;89.72;;;53.50;;
58731;SDS011;44508;44.626;21.182;2022-12-07T09:26:39;95.47;;;56.03;;
58731;SDS011;44508;44.626;21.182;2022-12-07T09:29:05;73.72;;;41.65;;
58731;SDS011;44508;44.626;21.182;2022-12-07T09:31:31;76.97;;;47.15;;
58731;SDS011;44508;44.626;21.182;2022-12-07T09:33:58;97.55;;;63.85;;
58731;SDS011;44508;44.626;21.182;2022-12-07T09:36:25;97.45;;;56.35;;
58731;SDS011;44508;44.626;21.182;2022-12-07T09:38:51;96.93;;;55.80;;
58731;SDS011;44508;44.626;21.182;2022-12-07T09:41:17;73.82;;;46.17;;
58731;SDS011;44508;44.626;21.182;2022-12-07T09:43:44;77.75;;;45.70;;
58731;SDS011;44508;44.626;21.182;2022-12-07T09:46:14;86.85;;;50.85;;
58731;SDS011;44508;44.626;21.182;2022-12-07T09:48:42;77.55;;;48.22;;
58731;SDS011;44508;44.626;21.182;2022-12-07T09:51:19;96.68;;;67.45;;
58731;SDS011;44508;44.626;21.182;2022-12-07T09:53:46;123.38;;;75.78;;
58731;SDS011;44508;44.626;21.182;2022-12-07T09:56:13;141.52;;;86.82;;
58731;SDS011;44508;44.626;21.182;2022-12-07T09:58:39;115.70;;;76.15;;
58731;SDS011;44508;44.626;21.182;2022-12-07T10:03:31;170.10;;;106.53;;
58731;SDS011;44508;44.626;21.182;2022-12-07T10:05:58;181.70;;;106.78;;
58731;SDS011;44508;44.626;21.182;2022-12-07T10:08:24;221.10;;;125.85;;
58731;SDS011;44508;44.626;21.182;2022-12-07T10:10:55;285.90;;;186.30;;
58731;SDS011;44508;44.626;21.182;2022-12-07T10:13:22;156.50;;;92.63;;
58731;SDS011;44508;44.626;21.182;2022-12-07T10:15:53;156.88;;;91.18;;
58731;SDS011;44508;44.626;21.182;2022-12-07T10:18:29;133.60;;;79.00;;
58731;SDS011;44508;44.626;21.182;2022-12-07T10:23:28;157.95;;;85.10;;
58731;SDS011;44508;44.626;21.182;2022-12-07T10:25:54;105.88;;;64.63;;
58731;SDS011;44508;44.626;21.182;2022-12-07T10:28:20;74.32;;;47.60;;
58731;SDS011;44508;44.626;21.182;2022-12-07T10:30:51;68.00;;;45.45;;
58731;SDS011;44508;44.626;21.182;2022-12-07T10:35:56;71.55;;;46.90;;
58731;SDS011;44508;44.626;21.182;2022-12-07T10:38:23;54.65;;;35.42;;
58731;SDS011;44508;44.626;21.182;2022-12-07T10:41:02;57.00;;;36.63;;
58731;SDS011;44508;44.626;21.182;2022-12-07T10:43:28;63.53;;;40.80;;
58731;SDS011;44508;44.626;21.182;2022-12-07T10:48:27;81.90;;;55.05;;
58731;SDS011;44508;44.626;21.182;2022-12-07T10:51:04;67.03;;;44.90;;
58731;SDS011;44508;44.626;21.182;2022-12-07T10:56:18;114.68;;;69.25;;
58731;SDS011;44508;44.626;21.182;2022-12-07T11:16:39;41.65;;;27.40;;
58731;SDS011;44508;44.626;21.182;2022-12-07T11:24:16;116.43;;;71.70;;
58731;SDS011;44508;44.626;21.182;2022-12-07T11:26:56;79.25;;;52.45;;
58731;SDS011;44508;44.626;21.182;2022-12-07T11:32:04;97.68;;;59.03;;
58731;SDS011;44508;44.626;21.182;2022-12-07T11:37:02;71.15;;;46.38;;
58731;SDS011;44508;44.626;21.182;2022-12-07T11:39:35;110.68;;;60.42;;
58731;SDS011;44508;44.626;21.182;2022-12-07T11:49:58;38.53;;;24.13;;
58731;SDS011;44508;44.626;21.182;2022-12-07T11:58:04;96.68;;;56.25;;
58731;SDS011;44508;44.626;21.182;2022-12-07T12:00:34;95.95;;;55.60;;
58731;SDS011;44508;44.626;21.182;2022-12-07T12:03:22;75.90;;;47.13;;
58731;SDS011;44508;44.626;21.182;2022-12-07T12:05:52;59.83;;;37.85;;
58731;SDS011;44508;44.626;21.182;2022-12-07T12:08:42;86.45;;;53.72;;
58731;SDS011;44508;44.626;21.182;2022-12-07T12:19:04;106.55;;;61.60;;
58731;SDS011;44508;44.626;21.182;2022-12-07T12:21:37;90.30;;;56.80;;
58731;SDS011;44508;44.626;21.182;2022-12-07T12:24:10;132.27;;;76.70;;
58731;SDS011;44508;44.626;21.182;2022-12-07T12:26:38;140.75;;;83.65;;
58731;SDS011;44508;44.626;21.182;2022-12-07T12:29:05;117.25;;;72.18;;
58731;SDS011;44508;44.626;21.182;2022-12-07T12:31:39;104.53;;;63.70;;
58731;SDS011;44508;44.626;21.182;2022-12-07T12:37:02;82.00;;;51.58;;
58731;SDS011;44508;44.626;21.182;2022-12-07T12:39:39;102.60;;;64.70;;
58731;SDS011;44508;44.626;21.182;2022-12-07T12:42:05;118.63;;;73.10;;
58731;SDS011;44508;44.626;21.182;2022-12-07T12:45:02;142.05;;;84.65;;
58731;SDS011;44508;44.626;21.182;2022-12-07T12:47:39;179.00;;;101.57;;
58731;SDS011;44508;44.626;21.182;2022-12-07T12:50:15;163.65;;;102.97;;
58731;SDS011;44508;44.626;21.182;2022-12-07T12:57:35;110.90;;;75.05;;
58731;SDS011;44508;44.626;21.182;2022-12-07T13:00:14;92.90;;;58.97;;
58731;SDS011;44508;44.626;21.182;2022-12-07T13:02:51;91.25;;;58.65;;
58731;SDS011;44508;44.626;21.182;2022-12-07T13:05:22;82.53;;;50.03;;
58731;SDS011;44508;44.626;21.182;2022-12-07T13:07:52;58.28;;;38.65;;
58731;SDS011;44508;44.626;21.182;2022-12-07T13:12:55;65.65;;;40.80;;
58731;SDS011;44508;44.626;21.182;2022-12-07T13:15:36;54.63;;;36.22;;
58731;SDS011;44508;44.626;21.182;2022-12-07T13:18:04;44.47;;;29.20;;
58731;SDS011;44508;44.626;21.182;2022-12-07T13:20:41;51.72;;;32.17;;
58731;SDS011;44508;44.626;21.182;2022-12-07T13:23:08;49.17;;;32.83;;
58731;SDS011;44508;44.626;21.182;2022-12-07T13:25:41;58.38;;;39.00;;
58731;SDS011;44508;44.626;21.182;2022-12-07T13:28:13;70.80;;;44.20;;
58731;SDS011;44508;44.626;21.182;2022-12-07T13:30:45;98.10;;;59.88;;
58731;SDS011;44508;44.626;21.182;2022-12-07T13:33:11;88.03;;;56.28;;
58731;SDS011;44508;44.626;21.182;2022-12-07T13:35:38;104.50;;;66.65;;
58731;SDS011;44508;44.626;21.182;2022-12-07T13:38:20;101.35;;;65.30;;
58731;SDS011;44508;44.626;21.182;2022-12-07T13:41:01;94.00;;;62.88;;
58731;SDS011;44508;44.626;21.182;2022-12-07T13:43:27;80.30;;;54.40;;
58731;SDS011;44508;44.626;21.182;2022-12-07T13:45:57;85.57;;;57.13;;
58731;SDS011;44508;44.626;21.182;2022-12-07T13:50:56;115.40;;;72.60;;
58731;SDS011;44508;44.626;21.182;2022-12-07T13:53:23;105.45;;;62.30;;
58731;SDS011;44508;44.626;21.182;2022-12-07T13:55:49;83.15;;;54.85;;
58731;SDS011;44508;44.626;21.182;2022-12-07T13:58:16;106.90;;;70.80;;
58731;SDS011;44508;44.626;21.182;2022-12-07T14:00:42;117.45;;;76.88;;
58731;SDS011;44508;44.626;21.182;2022-12-07T14:05:38;86.82;;;56.17;;
58731;SDS011;44508;44.626;21.182;2022-12-07T14:10:31;84.95;;;56.47;;
58731;SDS011;44508;44.626;21.182;2022-12-07T14:12:58;66.13;;;42.17;;
58731;SDS011;44508;44.626;21.182;2022-12-07T14:15:28;71.70;;;45.92;;
58731;SDS011;44508;44.626;21.182;2022-12-07T14:17:55;77.20;;;49.40;;
58731;SDS011;44508;44.626;21.182;2022-12-07T14:21:01;79.95;;;50.28;;
58731;SDS011;44508;44.626;21.182;2022-12-07T14:23:24;95.00;;;57.65;;
58731;SDS011;44508;44.626;21.182;2022-12-07T14:25:51;100.22;;;61.42;;
58731;SDS011;44508;44.626;21.182;2022-12-07T14:28:51;102.65;;;63.40;;
58731;SDS011;44508;44.626;21.182;2022-12-07T14:31:13;117.20;;;73.03;;
58731;SDS011;44508;44.626;21.182;2022-12-07T14:33:40;132.50;;;80.85;;
58731;SDS011;44508;44.626;21.182;2022-12-07T14:36:11;132.55;;;83.25;;
58731;SDS011;44508;44.626;21.182;2022-12-07T14:38:37;127.53;;;80.25;;
58731;SDS011;44508;44.626;21.182;2022-12-07T14:41:06;149.82;;;93.40;;
58731;SDS011;44508;44.626;21.182;2022-12-07T14:43:55;170.73;;;106.97;;
58731;SDS011;44508;44.626;21.182;2022-12-07T14:46:21;332.33;;;193.27;;
58731;SDS011;44508;44.626;21.182;2022-12-07T14:48:47;241.35;;;142.73;;
58731;SDS011;44508;44.626;21.182;2022-12-07T14:51:13;214.07;;;127.63;;
58731;SDS011;44508;44.626;21.182;2022-12-07T14:53:40;169.38;;;105.82;;
58731;SDS011;44508;44.626;21.182;2022-12-07T14:56:07;151.35;;;95.28;;
58731;SDS011;44508;44.626;21.182;2022-12-07T14:58:33;132.18;;;84.30;;
58731;SDS011;44508;44.626;21.182;2022-12-07T15:01:00;140.07;;;90.93;;
58731;SDS011;44508;44.626;21.182;2022-12-07T15:03:26;163.60;;;95.22;;
58731;SDS011;44508;44.626;21.182;2022-12-07T15:05:52;146.70;;;78.80;;
58731;SDS011;44508;44.626;21.182;2022-12-07T15:08:18;92.70;;;51.47;;
58731;SDS011;44508;44.626;21.182;2022-12-07T15:10:44;98.35;;;51.70;;
58731;SDS011;44508;44.626;21.182;2022-12-07T15:13:10;118.40;;;62.28;;
58731;SDS011;44508;44.626;21.182;2022-12-07T15:15:55;109.45;;;64.55;;
58731;SDS011;44508;44.626;21.182;2022-12-07T15:18:21;103.10;;;59.38;;
58731;SDS011;44508;44.626;21.182;2022-12-07T15:20:48;120.88;;;64.68;;
58731;SDS011;44508;44.626;21.182;2022-12-07T15:23:14;136.55;;;69.75;;
58731;SDS011;44508;44.626;21.182;2022-12-07T15:25:40;153.63;;;82.82;;
58731;SDS011;44508;44.626;21.182;2022-12-07T15:28:07;141.30;;;78.25;;
58731;SDS011;44508;44.626;21.182;2022-12-07T15:30:33;144.07;;;83.28;;
58731;SDS011;44508;44.626;21.182;2022-12-07T15:32:59;118.32;;;72.05;;
58731;SDS011;44508;44.626;21.182;2022-12-07T15:35:25;164.50;;;88.88;;
58731;SDS011;44508;44.626;21.182;2022-12-07T15:37:51;178.88;;;106.45;;
58731;SDS011;44508;44.626;21.182;2022-12-07T15:40:17;168.80;;;106.20;;
58731;SDS011;44508;44.626;21.182;2022-12-07T15:42:44;149.43;;;87.15;;
58731;SDS011;44508;44.626;21.182;2022-12-07T15:45:10;120.05;;;66.97;;
58731;SDS011;44508;44.626;21.182;2022-12-07T15:47:39;112.03;;;58.28;;
58731;SDS011;44508;44.626;21.182;2022-12-07T15:50:07;148.88;;;72.70;;
58731;SDS011;44508;44.626;21.182;2022-12-07T15:52:34;128.68;;;64.03;;
58731;SDS011;44508;44.626;21.182;2022-12-07T15:55:00;138.15;;;78.68;;
58731;SDS011;44508;44.626;21.182;2022-12-07T15:57:28;135.90;;;78.18;;
58731;SDS011;44508;44.626;21.182;2022-12-07T15:59:54;123.68;;;73.97;;